Terminal Aerodrome Forecast
Issued by NWS

Home | Current Version | Previous Version | Text Only | Print | Product List | Glossary Off
Versions: 1 2 3 4 5 6 7 8 9 10 11 12 13 14 15 16

409
FTUS43 KFGF 280520
TAFBJI
TAF
KBJI 280520Z 2806/2906 09004KT P6SM BKN100
     FM281000 36004KT P6SM OVC025
     FM281200 01007KT P6SM OVC008
     FM281400 01007KT P6SM VCSH OVC015
     FM281800 01008KT P6SM VCSH OVC035
     FM282000 01006KT P6SM VCSH OVC035
     FM282300 00000KT P6SM VCSH OVC050=

USA.gov is the U.S. government's official web portal to all federal, state and local government web resources and services.